Time;durP1;ratioP1;P1;durP2;ratioP2;P2;SDS_P1;SDS_P2;PMS_P1;PMS_P2;Temp;Humidity;BMP_temperature;BMP_pressure;BME280_temperature;BME280_humidity;BME280_pressure;Samples;Min_cycle;Max_cycle;Signal;HPM_P1;HPM_P2
2021/08/20 00:01:04;;;;;;;5.80;3.40;;;;;;;10.29;78.41;95837.50;1787369;80;21027;-58
2021/08/20 00:03:30;;;;;;;5.40;3.47;;;;;;;10.32;78.33;95839.22;1786989;80;21540;-59
2021/08/20 00:05:59;;;;;;;5.07;3.30;;;;;;;10.34;78.30;95836.98;1787224;80;21015;-59
2021/08/20 00:08:26;;;;;;;5.03;3.43;;;;;;;10.32;78.35;95840.55;1786663;80;21057;-59
2021/08/20 00:10:52;;;;;;;4.97;3.20;;;;;;;10.36;78.26;95839.62;1754389;80;20979;-59
2021/08/20 00:13:18;;;;;;;4.23;2.77;;;;;;;10.41;78.35;95836.47;1787289;80;21488;-58
2021/08/20 00:15:45;;;;;;;3.50;2.50;;;;;;;10.44;78.12;95831.59;1787057;80;20990;-59
2021/08/20 00:18:14;;;;;;;7.07;3.30;;;;;;;10.36;77.57;95832.57;1787109;80;21046;-58
2021/08/20 00:20:41;;;;;;;5.00;2.80;;;;;;;10.34;78.23;95831.72;1787028;80;21046;-59
2021/08/20 00:23:07;;;;;;;5.90;2.90;;;;;;;10.39;77.99;95821.97;1786738;80;21062;-59
2021/08/20 00:25:33;;;;;;;5.80;2.90;;;;;;;10.39;77.95;95821.97;1787243;80;21033;-58
2021/08/20 00:28:00;;;;;;;3.13;2.57;;;;;;;10.38;77.79;95824.20;1786952;80;21106;-58
2021/08/20 00:30:27;;;;;;;6.10;3.37;;;;;;;10.42;77.84;95824.14;1786987;80;21046;-59
2021/08/20 00:32:53;;;;;;;4.87;2.87;;;;;;;10.35;78.07;95822.89;1786861;80;21007;-59
2021/08/20 00:35:20;;;;;;;3.90;2.63;;;;;;;10.39;77.70;95829.88;1786858;80;21019;-59
2021/08/20 00:37:47;;;;;;;5.00;2.93;;;;;;;10.42;77.30;95832.06;1787257;80;21018;-59
2021/08/20 00:40:14;;;;;;;5.63;3.53;;;;;;;10.43;77.33;95832.02;1786841;80;21090;-59
2021/08/20 00:42:41;;;;;;;5.90;2.80;;;;;;;10.38;77.78;95828.57;1786849;80;21015;-59
2021/08/20 00:45:09;;;;;;;4.67;3.20;;;;;;;10.33;77.78;95822.07;1787091;80;20971;-59
2021/08/20 00:47:36;;;;;;;5.63;3.43;;;;;;;10.31;77.64;95829.58;1787192;80;21019;-58
2021/08/20 00:50:06;;;;;;;4.20;2.77;;;;;;;10.29;77.48;95826.08;1787206;80;21046;-58
2021/08/20 00:52:34;;;;;;;5.33;3.50;;;;;;;10.22;77.12;95831.84;1786668;80;21106;-59
2021/08/20 00:55:01;;;;;;;4.70;3.40;;;;;;;10.22;77.81;95832.30;1787168;80;21015;-59
2021/08/20 00:57:30;;;;;;;4.83;3.40;;;;;;;10.19;77.74;95826.16;1787153;80;21049;-59
2021/08/20 00:59:58;;;;;;;5.70;2.90;;;;;;;10.21;78.21;95825.30;1787007;80;21508;-58
2021/08/20 01:02:26;;;;;;;3.53;2.90;;;;;;;10.19;77.88;95815.62;1754004;80;21643;-59
2021/08/20 01:04:53;;;;;;;5.57;3.70;;;;;;;10.12;78.19;95822.31;1786640;80;21015;-59
2021/08/20 01:07:21;;;;;;;5.63;2.87;;;;;;;10.05;78.21;95822.83;1786911;80;21027;-60
2021/08/20 01:09:48;;;;;;;3.70;2.97;;;;;;;10.00;78.59;95824.66;1786863;80;21094;-59
2021/08/20 01:12:14;;;;;;;5.73;3.67;;;;;;;9.97;78.54;95827.33;1754198;80;21019;-59
2021/08/20 01:14:41;;;;;;;4.43;2.63;;;;;;;9.87;78.87;95823.06;1787178;80;21469;-59
2021/08/20 01:17:10;;;;;;;5.63;2.80;;;;;;;9.88;79.12;95819.56;1787122;80;21457;-59
2021/08/20 01:19:38;;;;;;;4.80;2.93;;;;;;;9.84;79.50;95818.70;1786974;80;21552;-58
2021/08/20 01:22:07;;;;;;;3.77;3.10;;;;;;;9.83;79.00;95829.28;1786869;80;21050;-58
2021/08/20 01:24:36;;;;;;;5.07;3.10;;;;;;;9.81;78.91;95825.79;1787236;80;21003;-58
2021/08/20 01:27:04;;;;;;;4.10;2.53;;;;;;;9.81;78.81;95827.97;1786931;80;21046;-58
2021/08/20 01:29:32;;;;;;;4.97;2.70;;;;;;;9.77;78.66;95826.25;1787112;80;21034;-58
2021/08/20 01:31:59;;;;;;;4.33;2.67;;;;;;;9.82;78.57;95824.89;1787117;80;21042;-58
2021/08/20 01:34:26;;;;;;;4.40;2.77;;;;;;;9.82;78.65;95820.48;1787057;80;20971;-58
2021/08/20 01:36:54;;;;;;;4.50;2.87;;;;;;;9.89;79.20;95822.16;1787123;80;20943;-59
2021/08/20 01:39:21;;;;;;;3.40;2.50;;;;;;;9.89;78.62;95826.11;1786952;80;21078;-58
2021/08/20 01:41:47;;;;;;;5.80;2.20;;;;;;;9.86;78.33;95831.42;1786602;80;21050;-59
2021/08/20 01:44:15;;;;;;;6.50;2.90;;;;;;;9.77;78.33;95824.94;1786793;80;21082;-58
2021/08/20 01:46:41;;;;;;;4.20;2.80;;;;;;;9.75;78.69;95823.66;1787094;80;20959;-58
2021/08/20 01:49:10;;;;;;;3.63;2.63;;;;;;;9.78;78.74;95825.38;1786641;80;20999;-59
2021/08/20 01:51:38;;;;;;;4.27;2.73;;;;;;;9.80;78.98;95823.58;1787294;80;20994;-59
2021/08/20 01:54:05;;;;;;;4.93;2.93;;;;;;;9.76;79.10;95824.52;1786909;80;21007;-59
2021/08/20 01:56:36;;;;;;;5.27;3.10;;;;;;;9.70;78.62;95821.52;1753639;80;20982;-59
2021/08/20 01:59:08;;;;;;;5.27;3.00;;;;;;;9.80;78.90;95819.63;1787118;80;21046;-58
2021/08/20 02:01:36;;;;;;;4.83;3.07;;;;;;;9.83;78.51;95818.75;1786968;80;21002;-58
2021/08/20 02:04:04;;;;;;;5.80;3.20;;;;;;;9.81;78.43;95817.43;1787000;80;20990;-58
2021/08/20 02:06:33;;;;;;;6.37;3.47;;;;;;;9.79;78.80;95820.98;1787299;80;20990;-59
2021/08/20 02:09:01;;;;;;;5.33;2.90;;;;;;;9.81;78.56;95813.94;1793425;80;21519;-58
2021/08/20 02:11:28;;;;;;;5.63;3.07;;;;;;;9.75;78.80;95818.39;1795709;80;20950;-58
2021/08/20 02:13:57;;;;;;;4.87;3.00;;;;;;;9.71;78.71;95823.25;1795335;80;21504;-59
2021/08/20 02:16:25;;;;;;;4.50;2.87;;;;;;;9.70;78.94;95817.98;1795380;80;20995;-58
2021/08/20 02:18:53;;;;;;;4.30;3.00;;;;;;;9.56;79.19;95826.52;1795728;80;21067;-58
2021/08/20 02:21:21;;;;;;;3.17;2.20;;;;;;;9.38;79.07;95827.13;1795384;80;20975;-58
2021/08/20 02:23:48;;;;;;;3.90;2.70;;;;;;;9.31;79.68;95827.62;1795151;80;21018;-58
2021/08/20 02:26:14;;;;;;;4.00;2.67;;;;;;;9.30;80.18;95830.30;1795419;80;20987;-58
2021/08/20 02:28:42;;;;;;;5.40;2.63;;;;;;;9.25;80.81;95829.47;1795581;80;21062;-58
2021/08/20 02:31:09;;;;;;;4.50;2.67;;;;;;;9.23;80.99;95828.60;1795281;80;21472;-58
2021/08/20 02:33:35;;;;;;;3.80;3.37;;;;;;;9.18;81.46;95829.09;1795429;80;21051;-58
2021/08/20 02:36:06;;;;;;;4.07;2.90;;;;;;;9.18;81.10;95823.83;1795448;80;20963;-58
2021/08/20 02:38:33;;;;;;;3.10;2.53;;;;;;;9.23;81.50;95824.66;1795269;80;21529;-58
2021/08/20 02:41:00;;;;;;;4.87;3.10;;;;;;;9.26;81.63;95824.17;1795544;80;21100;-58
2021/08/20 02:43:27;;;;;;;3.70;2.57;;;;;;;9.26;80.83;95819.35;1795288;80;21117;-58
2021/08/20 02:45:54;;;;;;;3.33;2.53;;;;;;;9.23;81.45;95816.76;1763189;80;21476;-58
2021/08/20 02:48:23;;;;;;;4.33;2.60;;;;;;;9.23;80.74;95818.08;1795389;80;21015;-57
2021/08/20 02:50:50;;;;;;;3.73;2.80;;;;;;;9.28;80.78;95821.53;1795658;80;21063;-58
2021/08/20 02:53:18;;;;;;;3.83;2.50;;;;;;;9.32;80.37;95825.86;1795311;80;21093;-58
2021/08/20 02:55:45;;;;;;;3.60;2.60;;;;;;;9.41;79.78;95827.55;1795356;80;20994;-58
2021/08/20 02:58:11;;;;;;;3.60;2.67;;;;;;;9.38;78.58;95818.37;1795430;80;21058;-58
2021/08/20 03:00:40;;;;;;;4.13;2.70;;;;;;;9.37;79.09;95822.73;1792623;80;20983;-58
2021/08/20 03:03:07;;;;;;;3.33;2.50;;;;;;;9.41;79.53;95826.23;1795467;80;21321;-58
2021/08/20 03:05:33;;;;;;;4.73;2.60;;;;;;;9.44;79.45;95825.73;1795316;80;20999;-58
2021/08/20 03:08:00;;;;;;;3.00;2.23;;;;;;;9.26;79.44;95821.98;1792673;80;21106;-57
2021/08/20 03:10:28;;;;;;;4.37;3.00;;;;;;;9.17;80.02;95833.49;1787379;80;21049;-58
2021/08/20 03:12:55;;;;;;;5.80;2.43;;;;;;;9.15;80.16;95832.63;1786928;80;20995;-57
2021/08/20 03:15:22;;;;;;;6.20;3.20;;;;;;;9.14;80.23;95829.55;1787112;80;21003;-58
2021/08/20 03:17:49;;;;;;;4.00;2.80;;;;;;;9.22;80.12;95827.73;1786874;80;21089;-57
2021/08/20 03:20:16;;;;;;;5.23;3.10;;;;;;;9.20;79.80;95822.92;1787160;80;21002;-58
2021/08/20 03:22:43;;;;;;;5.60;2.70;;;;;;;9.29;79.72;95823.27;1787130;80;21034;-58
2021/08/20 03:25:12;;;;;;;3.43;2.77;;;;;;;9.35;79.75;95819.27;1786426;80;20994;-58
2021/08/20 03:27:39;;;;;;;4.20;2.30;;;;;;;9.38;79.70;95819.23;1787234;80;21509;-57
2021/08/20 03:30:17;;;;;;;4.70;3.40;;;;;;;9.41;79.18;95823.59;1783232;80;21141;-58
2021/08/20 03:32:45;;;;;;;6.23;3.20;;;;;;;9.29;79.39;95826.77;1785261;80;21517;-58
2021/08/20 03:35:14;;;;;;;4.40;2.77;;;;;;;9.31;79.04;95825.44;1787256;80;21010;-57
2021/08/20 03:37:41;;;;;;;3.60;2.60;;;;;;;9.25;78.64;95826.84;1754211;80;21077;-58
2021/08/20 03:40:10;;;;;;;5.27;3.60;;;;;;;9.24;78.87;95830.34;1786915;80;20996;-58
2021/08/20 03:42:38;;;;;;;3.60;2.60;;;;;;;9.21;79.23;95831.23;1786773;80;21042;-57
2021/08/20 03:45:16;;;;;;;4.33;2.97;;;;;;;9.15;79.93;95843.16;1749985;80;21548;-57
2021/08/20 03:47:43;;;;;;;5.47;3.53;;;;;;;9.14;79.93;95837.44;1787103;80;20978;-58
2021/08/20 03:50:09;;;;;;;5.57;3.47;;;;;;;9.15;79.86;95838.31;1754455;80;21078;-57
2021/08/20 03:52:36;;;;;;;7.30;3.67;;;;;;;9.18;80.05;95840.48;1787077;80;21018;-57
2021/08/20 03:55:05;;;;;;;5.13;3.47;;;;;;;9.20;80.08;95849.25;1786748;80;21094;-57
2021/08/20 03:57:33;;;;;;;5.33;3.57;;;;;;;9.18;80.66;95852.34;1787127;80;21078;-58
2021/08/20 04:00:00;;;;;;;6.90;2.70;;;;;;;9.20;80.39;95849.25;1753657;80;21006;-58
2021/08/20 04:02:26;;;;;;;4.73;3.00;;;;;;;9.18;80.12;95851.47;1787092;80;21042;-58
2021/08/20 04:04:53;;;;;;;3.63;2.60;;;;;;;9.17;79.73;95853.23;1787415;80;21011;-58
2021/08/20 04:07:21;;;;;;;15.60;3.63;;;;;;;9.08;79.26;95855.94;1754860;80;20987;-58
2021/08/20 04:09:50;;;;;;;5.30;2.37;;;;;;;9.00;80.17;95856.00;1785026;80;21010;-58
2021/08/20 04:12:18;;;;;;;3.67;2.83;;;;;;;9.02;80.32;95855.97;1767150;80;21532;-57
2021/08/20 04:14:47;;;;;;;4.67;3.30;;;;;;;9.03;80.50;95858.60;1784881;80;21141;-58
2021/08/20 04:17:14;;;;;;;4.80;2.67;;;;;;;9.12;81.12;95862.03;1786968;80;21026;-57
2021/08/20 04:19:42;;;;;;;6.70;3.33;;;;;;;9.18;81.52;95858.05;1787314;80;20999;-58
2021/08/20 04:22:09;;;;;;;5.10;3.43;;;;;;;9.29;81.46;95861.45;1786742;80;21462;-58
2021/08/20 04:24:38;;;;;;;4.20;3.00;;;;;;;9.43;80.72;95857.38;1787149;80;21062;-58
2021/08/20 04:27:18;;;;;;;4.57;3.97;;;;;;;9.53;80.71;95856.39;1781720;80;21047;-58
2021/08/20 04:29:53;;;;;;;6.77;4.60;;;;;;;9.63;80.73;95854.55;1785178;80;21047;-58
2021/08/20 04:32:33;;;;;;;6.87;4.27;;;;;;;9.85;80.54;95853.83;1713474;80;21409;-59
2021/08/20 04:35:06;;;;;;;5.60;3.70;;;;;;;10.05;79.39;95856.23;1783938;80;21042;-59
2021/08/20 04:37:51;;;;;;;4.53;3.63;;;;;;;10.21;79.31;95848.57;1787086;80;21015;-58
2021/08/20 04:40:34;;;;;;;;;;;;;;;10.45;79.11;95854.43;1788682;80;21035;-59
2021/08/20 04:43:03;;;;;;;5.00;3.10;;;;;;;10.63;78.21;95848.02;1754622;82;20103;-58
2021/08/20 04:45:41;;;;;;;5.47;3.37;;;;;;;10.73;78.12;95849.16;1786972;80;21496;-58
2021/08/20 04:48:09;;;;;;;5.90;4.10;;;;;;;10.88;77.76;95853.80;1783363;80;20999;-58
2021/08/20 04:50:41;;;;;;;4.30;3.67;;;;;;;11.04;77.78;95848.71;1785094;80;21023;-58
2021/08/20 04:53:09;;;;;;;5.40;3.70;;;;;;;11.19;77.14;95853.73;1784305;80;21002;-58
2021/08/20 04:55:44;;;;;;;6.33;2.97;;;;;;;11.25;77.46;95853.62;1741702;80;21027;-58
2021/08/20 04:58:10;;;;;;;5.07;3.57;;;;;;;11.28;77.83;95852.69;1787146;80;21476;-58
2021/08/20 05:00:37;;;;;;;5.00;3.40;;;;;;;11.33;77.63;95849.98;1787434;80;21014;-58
2021/08/20 05:03:05;;;;;;;5.17;3.60;;;;;;;11.36;77.59;95845.95;1787034;80;21488;-58
2021/08/20 05:05:32;;;;;;;4.70;3.60;;;;;;;11.39;77.41;95841.50;1787201;80;21007;-59
2021/08/20 05:07:58;;;;;;;4.73;3.57;;;;;;;11.48;77.52;95841.32;1787482;80;20987;-59
2021/08/20 05:10:27;;;;;;;4.83;3.60;;;;;;;11.61;77.39;95845.92;1795197;80;20995;-60
2021/08/20 05:12:54;;;;;;;5.77;3.90;;;;;;;11.73;77.26;95844.84;1795578;80;21019;-58
2021/08/20 05:15:22;;;;;;;5.70;3.73;;;;;;;11.85;76.88;95841.09;1795161;80;21022;-58
2021/08/20 05:17:49;;;;;;;4.77;3.90;;;;;;;11.94;76.61;95842.25;1795531;80;21078;-58
2021/08/20 05:20:15;;;;;;;5.40;3.23;;;;;;;12.03;76.34;95851.78;1795152;80;21553;-58
2021/08/20 05:22:53;;;;;;;5.10;3.97;;;;;;;12.10;76.31;95850.30;1795480;80;21066;-58
2021/08/20 05:25:23;;;;;;;5.93;4.30;;;;;;;12.20;76.42;95848.80;1795189;80;21472;-58
2021/08/20 05:27:51;;;;;;;4.77;3.33;;;;;;;12.33;76.52;95851.61;1795177;80;21022;-58
2021/08/20 05:30:19;;;;;;;5.23;3.67;;;;;;;12.42;76.31;95846.09;1795403;80;21029;-58
2021/08/20 05:32:45;;;;;;;4.37;3.37;;;;;;;12.53;75.76;95841.91;1795014;80;20975;-59
2021/08/20 05:35:14;;;;;;;6.33;3.70;;;;;;;12.61;75.69;95845.25;1795397;80;20983;-59
2021/08/20 05:37:41;;;;;;;5.37;3.70;;;;;;;12.74;76.23;95841.87;1795605;80;20963;-58
2021/08/20 05:40:09;;;;;;;5.37;3.22;;;;;;;12.89;76.11;95840.18;1794926;80;21536;-59
2021/08/20 05:42:36;;;;;;;5.97;3.50;;;;;;;13.06;75.80;95842.89;1795483;80;21061;-59
2021/08/20 05:45:04;;;;;;;5.78;3.35;;;;;;;13.21;75.77;95839.86;1795362;80;21006;-58
2021/08/20 05:47:31;;;;;;;4.00;3.10;;;;;;;13.35;74.47;95839.08;1795173;80;21018;-59
2021/08/20 05:49:58;;;;;;;4.47;3.62;;;;;;;13.49;74.08;95836.08;1795463;80;21007;-58
2021/08/20 05:52:26;;;;;;;4.80;3.30;;;;;;;13.66;73.90;95844.03;1795390;80;21071;-58
2021/08/20 05:54:52;;;;;;;7.15;3.42;;;;;;;13.82;73.59;95840.07;1794998;80;21006;-59
2021/08/20 05:57:19;;;;;;;4.78;3.55;;;;;;;14.01;73.14;95843.07;1795370;80;21022;-59
2021/08/20 05:59:45;;;;;;;6.00;3.10;;;;;;;14.18;73.00;95831.52;1795478;80;20996;-59
2021/08/20 06:02:12;;;;;;;4.40;2.90;;;;;;;14.41;72.86;95838.84;1795438;80;21034;-59
2021/08/20 06:04:38;;;;;;;5.03;3.55;;;;;;;14.62;72.54;95837.34;1795212;80;21102;-59
2021/08/20 06:07:08;;;;;;;5.35;3.50;;;;;;;14.85;72.89;95843.27;1795380;80;20991;-59
2021/08/20 06:09:35;;;;;;;4.83;3.70;;;;;;;15.07;71.95;95832.84;1790066;80;21384;-59
2021/08/20 06:12:02;;;;;;;6.22;3.72;;;;;;;15.24;71.19;95834.05;1787019;80;20983;-58
2021/08/20 06:14:28;;;;;;;5.95;3.60;;;;;;;15.41;70.93;95835.70;1786641;80;21018;-59
2021/08/20 06:16:55;;;;;;;7.35;3.60;;;;;;;15.61;70.70;95834.16;1787244;80;20995;-59
2021/08/20 06:19:23;;;;;;;6.60;3.83;;;;;;;15.78;70.51;95831.34;1787330;80;21046;-59
2021/08/20 06:21:51;;;;;;;4.62;3.50;;;;;;;15.95;70.03;95836.52;1786992;80;21098;-59
2021/08/20 06:24:18;;;;;;;5.17;4.17;;;;;;;16.11;69.66;95846.17;1786763;80;21031;-60
2021/08/20 06:26:48;;;;;;;6.37;3.77;;;;;;;16.26;69.21;95847.41;1787085;80;21477;-59
2021/08/20 06:29:16;;;;;;;4.85;3.25;;;;;;;16.38;68.81;95846.48;1786864;80;21030;-59
2021/08/20 06:31:43;;;;;;;4.72;3.30;;;;;;;16.53;68.61;95841.48;1787207;80;20960;-59
2021/08/20 06:34:10;;;;;;;7.75;3.87;;;;;;;16.65;67.88;95843.22;1786761;80;21122;-59
2021/08/20 06:36:36;;;;;;;6.90;3.83;;;;;;;16.73;67.00;95842.05;1786680;80;21118;-59
2021/08/20 06:39:04;;;;;;;5.58;3.62;;;;;;;16.85;66.47;95844.28;1787092;80;20990;-58
2021/08/20 06:41:30;;;;;;;9.08;4.67;;;;;;;16.94;66.41;95839.06;1786890;80;21584;-59
2021/08/20 06:43:58;;;;;;;8.48;4.40;;;;;;;17.02;65.98;95836.48;1786991;80;20978;-59
2021/08/20 06:46:25;;;;;;;10.32;4.50;;;;;;;17.16;66.03;95838.61;1786742;80;21565;-59
2021/08/20 06:48:51;;;;;;;10.20;4.37;;;;;;;17.30;65.96;95832.23;1787055;80;21014;-59
2021/08/20 06:51:18;;;;;;;7.55;4.22;;;;;;;17.47;65.63;95832.01;1787022;80;21129;-59
2021/08/20 06:53:44;;;;;;;8.60;4.25;;;;;;;17.66;64.54;95830.75;1787137;80;21015;-59
2021/08/20 06:56:11;;;;;;;9.85;4.10;;;;;;;17.81;63.86;95827.92;1786676;80;21576;-59
2021/08/20 06:58:38;;;;;;;14.03;3.52;;;;;;;17.94;62.04;95827.34;1787141;80;21062;-59
2021/08/20 07:01:06;;;;;;;11.80;4.00;;;;;;;18.07;61.12;95826.80;1786932;80;21556;-59
2021/08/20 07:03:32;;;;;;;4.20;3.08;;;;;;;18.24;62.36;95828.22;1787218;80;21003;-59
2021/08/20 07:05:58;;;;;;;4.92;3.15;;;;;;;18.40;59.41;95828.41;1786926;80;21027;-59
2021/08/20 07:08:25;;;;;;;4.17;2.75;;;;;;;18.51;57.48;95830.11;1787120;80;21078;-59
2021/08/20 07:10:51;;;;;;;4.78;2.90;;;;;;;18.83;52.80;95818.43;1786889;80;21027;-59
2021/08/20 07:13:18;;;;;;;6.05;3.27;;;;;;;19.02;54.74;95826.42;1787277;80;21517;-59
2021/08/20 07:15:44;;;;;;;3.08;2.52;;;;;;;19.02;54.74;95826.42;1786926;80;21026;-59
2021/08/20 07:18:10;;;;;;;3.22;2.80;;;;;;;19.13;52.36;95826.78;1786982;80;21050;-59
2021/08/20 07:20:37;;;;;;;4.03;3.27;;;;;;;19.25;51.13;95829.31;1787258;80;21058;-59
2021/08/20 07:23:04;;;;;;;3.98;3.37;;;;;;;19.37;52.57;95834.54;1787153;80;21034;-59
2021/08/20 07:25:30;;;;;;;5.10;3.00;;;;;;;19.54;50.67;95827.88;1787190;80;20968;-59
2021/08/20 07:27:57;;;;;;;3.80;2.60;;;;;;;19.71;50.35;95831.08;1787190;80;21452;-59
2021/08/20 07:30:23;;;;;;;7.62;2.77;;;;;;;19.87;47.67;95829.34;1787452;80;21030;-59
2021/08/20 07:32:50;;;;;;;5.05;2.85;;;;;;;20.00;47.90;95828.23;1786909;80;21540;-59
2021/08/20 07:35:16;;;;;;;5.20;2.58;;;;;;;20.12;47.77;95835.25;1787336;80;20967;-58
2021/08/20 07:37:43;;;;;;;4.00;2.98;;;;;;;20.24;46.85;95832.78;1787280;80;21458;-59
2021/08/20 09:44:15;;;;;;;3.52;2.52;;;;;;;26.28;31.78;95786.38;1824983;79;22855;-59
2021/08/20 09:46:55;;;;;;;6.03;2.12;;;;;;;26.25;31.25;95793.86;1795982;80;20990;-59
2021/08/20 09:49:16;;;;;;;5.17;2.70;;;;;;;26.43;32.84;95795.61;1794072;80;21019;-59
2021/08/20 09:51:47;;;;;;;6.08;2.98;;;;;;;26.78;32.83;95790.14;1796047;80;21014;-59
2021/08/20 09:54:26;;;;;;;4.40;2.67;;;;;;;27.13;32.88;95792.70;1795775;80;21018;-59
2021/08/20 09:56:51;;;;;;;3.50;2.50;;;;;;;27.24;31.85;95795.06;1794097;80;21093;-59
2021/08/20 09:59:18;;;;;;;3.58;2.50;;;;;;;27.35;31.43;95793.70;1795861;80;21046;-59
2021/08/20 10:01:47;;;;;;;8.15;2.95;;;;;;;26.88;30.40;95802.45;1795909;80;21068;-58
2021/08/20 10:04:16;;;;;;;4.20;2.70;;;;;;;26.33;32.69;95797.70;1795726;80;21014;-59
2021/08/20 10:06:46;;;;;;;5.15;2.70;;;;;;;25.69;31.67;95791.80;1795833;80;21114;-59
2021/08/20 10:09:20;;;;;;;2.80;2.40;;;;;;;25.19;32.64;95801.34;1795774;80;20997;-58
2021/08/20 10:11:53;;;;;;;6.62;2.87;;;;;;;24.70;33.56;95795.43;1795618;80;21129;-58
2021/08/20 10:14:22;;;;;;;;;;;;;;;24.54;35.82;95806.42;1798750;80;20994;-58
2021/08/20 10:16:48;;;;;;;3.17;2.62;;;;;;;25.04;36.43;95801.08;1793078;80;20112;-58
2021/08/20 10:19:15;;;;;;;6.30;2.62;;;;;;;25.74;36.64;95786.91;1795794;80;21471;-58
2021/08/20 10:21:45;;;;;;;3.35;2.70;;;;;;;26.26;34.61;95782.94;1795897;80;21056;-58
2021/08/20 10:24:15;;;;;;;3.35;2.58;;;;;;;26.33;33.71;95772.01;1795842;80;20979;-58
2021/08/20 10:26:54;;;;;;;23.87;2.95;;;;;;;26.33;33.96;95773.83;1795905;80;21003;-59
2021/08/20 10:29:26;;;;;;;23.75;4.40;;;;;;;26.52;32.85;95775.95;1795680;80;20966;-59
2021/08/20 10:31:58;;;;;;;4.30;3.10;;;;;;;26.90;32.94;95770.70;1796063;80;21062;-59
2021/08/20 10:34:34;;;;;;;13.20;2.67;;;;;;;27.37;33.37;95773.63;1796067;80;22044;-59
2021/08/20 10:37:16;;;;;;;4.90;2.45;;;;;;;27.60;31.61;95768.14;1795679;80;21034;-59
2021/08/20 10:39:49;;;;;;;5.17;2.77;;;;;;;27.74;31.91;95765.61;1796078;80;20979;-59
2021/08/20 10:42:25;;;;;;;5.30;4.08;;;;;;;27.56;31.06;95764.80;1795205;80;21022;-58
2021/08/20 10:45:06;;;;;;;9.55;3.80;;;;;;;27.25;32.69;95767.86;1786690;80;21073;-59
2021/08/20 10:47:33;;;;;;;4.08;3.00;;;;;;;26.97;33.17;95768.73;1790512;80;21519;-59
2021/08/20 10:50:14;;;;;;;3.65;2.50;;;;;;;26.66;31.75;95773.52;1790372;80;20999;-59
2021/08/20 10:52:44;;;;;;;3.58;2.58;;;;;;;26.59;32.97;95774.52;1790702;80;21038;-58
2021/08/20 10:55:15;;;;;;;3.58;2.52;;;;;;;26.59;32.21;95766.91;1790141;80;21464;-59
2021/08/20 10:57:58;;;;;;;3.00;2.60;;;;;;;26.75;33.62;95768.23;1789952;80;21310;-59
2021/08/20 11:00:28;;;;;;;4.80;2.98;;;;;;;26.66;33.31;95766.29;1789962;80;20982;-60
2021/08/20 11:02:59;;;;;;;43.58;5.08;;;;;;;26.52;33.70;95767.38;1790012;80;21022;-59
2021/08/20 11:05:42;;;;;;;5.35;2.95;;;;;;;26.57;33.89;95764.30;1788675;80;21515;-59
2021/08/20 11:08:32;;;;;;;3.87;2.17;;;;;;;26.62;31.78;95761.23;1789947;80;20994;-58
2021/08/20 11:11:00;;;;;;;3.70;2.70;;;;;;;26.91;33.21;95754.81;1790097;80;20994;-59
2021/08/20 11:13:27;;;;;;;6.25;2.45;;;;;;;27.45;31.95;95751.80;1789765;80;21531;-59
2021/08/20 11:15:55;;;;;;;8.00;2.60;;;;;;;27.40;31.39;95756.25;1789937;80;21526;-59
2021/08/20 11:18:46;;;;;;;6.00;2.72;;;;;;;27.74;31.74;95752.91;1789645;80;21349;-60
2021/08/20 11:21:45;;;;;;;11.60;3.25;;;;;;;27.77;31.54;95752.67;1789758;80;20979;-59
2021/08/20 11:24:19;;;;;;;5.22;3.00;;;;;;;27.60;31.66;95748.66;1789822;80;21074;-59
2021/08/20 11:26:46;;;;;;;3.75;2.65;;;;;;;27.32;32.67;95755.53;1789266;80;21003;-59
2021/08/20 11:29:16;;;;;;;8.10;2.58;;;;;;;27.24;32.41;95759.38;1789908;80;21558;-59
2021/08/20 11:31:44;;;;;;;6.22;2.75;;;;;;;27.19;32.53;95761.11;1790037;80;21017;-59
2021/08/20 11:34:11;;;;;;;3.75;2.55;;;;;;;27.09;33.07;95762.81;1789826;80;21007;-59
2021/08/20 11:36:43;;;;;;;3.60;2.95;;;;;;;26.86;33.17;95766.51;1789635;80;21007;-59
2021/08/20 11:39:10;;;;;;;3.58;2.45;;;;;;;26.78;33.07;95764.42;1789398;80;21066;-59
2021/08/20 11:41:48;;;;;;;4.20;2.70;;;;;;;26.59;33.80;95759.64;1789604;80;21492;-59
2021/08/20 11:44:16;;;;;;;4.40;2.50;;;;;;;26.51;34.41;95757.98;1790011;80;21507;-58
2021/08/20 11:46:46;;;;;;;5.25;3.05;;;;;;;26.39;35.47;95761.19;1789544;80;21130;-59
2021/08/20 11:49:28;;;;;;;3.87;2.50;;;;;;;26.32;35.44;95757.23;1789949;80;20985;-58
2021/08/20 11:52:04;;;;;;;5.03;2.90;;;;;;;26.21;33.60;95751.33;1789922;80;21010;-59
2021/08/20 11:54:36;;;;;;;2.75;2.50;;;;;;;27.07;34.58;95739.05;1786301;80;21448;-59
2021/08/20 11:57:03;;;;;;;3.75;2.60;;;;;;;28.27;32.69;95737.12;1790020;80;21046;-59
2021/08/20 11:59:30;;;;;;;3.27;2.47;;;;;;;28.90;30.21;95731.59;1789985;80;21454;-59
2021/08/20 12:02:00;;;;;;;3.80;2.45;;;;;;;28.97;29.47;95723.77;1789514;80;21105;-59
2021/08/20 12:04:26;;;;;;;4.83;2.80;;;;;;;29.26;29.17;95726.61;1789926;80;21009;-60
2021/08/20 12:06:53;;;;;;;3.62;2.30;;;;;;;29.85;28.36;95722.95;1789781;80;21059;-59
2021/08/20 12:09:20;;;;;;;3.40;2.55;;;;;;;30.37;26.99;95723.99;1789901;80;21038;-59
2021/08/20 12:11:53;;;;;;;2.37;2.17;;;;;;;30.63;25.76;95721.47;1789889;80;21475;-59
2021/08/20 12:14:23;;;;;;;3.72;2.20;;;;;;;30.92;26.46;95716.42;1789944;80;20983;-59
2021/08/20 12:16:52;;;;;;;3.95;3.00;;;;;;;30.97;25.13;95716.34;1789856;80;21046;-59
2021/08/20 12:19:29;;;;;;;3.42;2.42;;;;;;;30.97;26.90;95716.83;1790027;80;20935;-59
2021/08/20 12:22:08;;;;;;;6.75;2.62;;;;;;;31.61;25.92;95717.77;1789644;80;21053;-59
2021/08/20 12:24:41;;;;;;;3.58;2.60;;;;;;;31.44;26.61;95716.22;1790109;80;21456;-60
2021/08/20 12:27:15;;;;;;;3.22;2.47;;;;;;;31.09;25.97;95715.63;1789654;80;21023;-59
2021/08/20 12:29:45;;;;;;;3.83;2.70;;;;;;;31.84;24.91;95709.45;1789663;80;20982;-59
2021/08/20 12:32:21;;;;;;;3.70;2.42;;;;;;;32.61;23.85;95704.79;1789807;80;21552;-59
2021/08/20 12:35:09;;;;;;;3.83;2.60;;;;;;;32.90;23.60;95700.34;1790094;80;21405;-59
2021/08/20 12:37:36;;;;;;;4.65;2.85;;;;;;;33.24;23.91;95698.11;1789543;80;21122;-59
2021/08/20 12:40:08;;;;;;;2.83;2.50;;;;;;;34.01;24.16;95694.17;1789995;80;21001;-59
2021/08/20 12:42:47;;;;;;;4.15;2.45;;;;;;;34.28;22.35;95690.78;1787055;80;21106;-60
2021/08/20 12:45:20;;;;;;;3.85;2.52;;;;;;;33.79;22.91;95690.73;1789863;80;21002;-60
2021/08/20 12:48:03;;;;;;;4.15;2.50;;;;;;;33.81;24.47;95692.28;1789984;80;21082;-60
2021/08/20 12:50:32;;;;;;;3.15;2.62;;;;;;;34.03;23.68;95689.91;1785432;80;20951;-59
2021/08/20 12:53:09;;;;;;;6.50;2.40;;;;;;;34.42;22.75;95694.20;1789958;80;21139;-59
2021/08/20 12:55:46;;;;;;;13.58;2.90;;;;;;;35.01;21.31;95697.14;1789907;80;20986;-59
2021/08/20 12:58:12;;;;;;;2.87;2.10;;;;;;;35.04;21.61;95690.78;1789693;80;21500;-59
2021/08/20 13:00:42;;;;;;;3.62;2.35;;;;;;;35.48;21.19;95694.37;1789912;80;21003;-59
2021/08/20 13:03:12;;;;;;;4.20;2.20;;;;;;;35.63;20.39;95695.84;1789822;80;21539;-59
2021/08/20 13:05:56;;;;;;;3.87;2.37;;;;;;;34.92;19.67;95693.56;1789552;80;21017;-59
2021/08/20 13:08:26;;;;;;;7.85;2.58;;;;;;;33.82;22.32;95689.91;1755986;80;21038;-59
2021/08/20 13:10:56;;;;;;;3.87;2.60;;;;;;;33.06;23.56;95696.85;1789744;80;22339;-59
2021/08/20 13:13:24;;;;;;;14.15;9.98;;;;;;;32.51;25.07;95697.59;1789880;80;21074;-59
2021/08/20 13:15:51;;;;;;;6.65;2.58;;;;;;;31.73;25.60;95694.70;1789991;80;21006;-59
2021/08/20 13:18:19;;;;;;;4.70;2.52;;;;;;;31.46;25.76;95696.48;1789720;80;21471;-60
2021/08/20 13:20:49;;;;;;;8.53;4.12;;;;;;;32.33;26.21;95692.16;1789641;80;20975;-59
2021/08/20 13:23:17;;;;;;;7.60;4.08;;;;;;;33.00;24.79;95679.20;1789830;80;20979;-59
2021/08/20 13:25:43;;;;;;;8.15;3.77;;;;;;;33.48;23.59;95681.77;1789768;80;21007;-60
2021/08/20 13:28:11;;;;;;;10.08;3.52;;;;;;;33.77;22.23;95679.98;1789940;80;20991;-59
2021/08/20 13:30:40;;;;;;;6.80;2.60;;;;;;;33.94;22.34;95674.49;1789870;80;20990;-59
2021/08/20 13:33:07;;;;;;;2.87;2.45;;;;;;;34.41;21.24;95666.96;1789948;80;21006;-60
2021/08/20 13:35:34;;;;;;;9.45;2.58;;;;;;;34.65;20.67;95671.05;1789638;80;20986;-59
2021/08/20 13:38:01;;;;;;;3.30;2.67;;;;;;;33.69;21.80;95669.52;1789806;80;21113;-60
2021/08/20 13:40:32;;;;;;;3.47;2.50;;;;;;;32.85;22.92;95671.28;1789870;80;21022;-60
2021/08/20 13:43:03;;;;;;;9.08;2.58;;;;;;;32.02;24.74;95684.91;1788367;80;21025;-59
2021/08/20 13:45:29;;;;;;;4.28;2.55;;;;;;;32.35;25.10;95681.05;1789957;80;21011;-59
2021/08/20 13:47:56;;;;;;;5.65;2.50;;;;;;;32.86;22.88;95674.36;1789361;80;21002;-60
2021/08/20 13:50:22;;;;;;;19.27;2.95;;;;;;;32.26;24.07;95678.78;1789815;80;21499;-60